createdAt,value
2022-09-12T00:00:33.878Z,44.90
2022-09-12T00:01:33.939Z,46.20
2022-09-12T00:02:33.879Z,44.70
2022-09-12T00:03:33.848Z,45.40
2022-09-12T00:04:33.838Z,43.90
2022-09-12T00:05:33.834Z,45.40
2022-09-12T00:06:33.801Z,43.80
2022-09-12T00:07:33.833Z,45.50
2022-09-12T00:08:33.780Z,46.50
2022-09-12T00:09:33.831Z,46.00
2022-09-12T00:10:33.750Z,45.10
2022-09-12T00:11:33.741Z,44.30
2022-09-12T00:12:33.750Z,47.60
2022-09-12T00:13:35.546Z,45.20
2022-09-12T00:14:33.691Z,44.10
2022-09-12T00:15:33.693Z,44.90
2022-09-12T00:16:33.819Z,44.20
2022-09-12T00:17:33.708Z,44.10
2022-09-12T00:18:33.640Z,45.70
2022-09-12T00:19:33.631Z,44.50
2022-09-12T00:20:33.612Z,44.60
2022-09-12T00:21:33.603Z,44.00
2022-09-12T00:22:33.582Z,45.90
2022-09-12T00:23:33.603Z,44.50
2022-09-12T00:24:33.563Z,45.80
2022-09-12T00:25:33.571Z,43.70
2022-09-12T00:26:33.533Z,45.30
2022-09-12T00:27:33.521Z,47.70
2022-09-12T00:28:33.541Z,45.80
2022-09-12T00:29:33.496Z,46.70
2022-09-12T00:30:33.474Z,45.60
2022-09-12T00:31:33.500Z,45.60
2022-09-12T00:32:33.443Z,43.70
2022-09-12T00:33:33.474Z,45.30
2022-09-12T00:34:33.426Z,45.70
2022-09-12T00:35:33.416Z,43.90
2022-09-12T00:36:33.395Z,43.30
2022-09-12T00:37:33.457Z,43.20
2022-09-12T00:38:33.365Z,42.90
2022-09-12T00:39:33.355Z,43.40
2022-09-12T00:40:33.346Z,45.40
2022-09-12T00:41:33.341Z,44.60
2022-09-12T00:42:33.348Z,44.70
2022-09-12T00:43:33.306Z,44.80
2022-09-12T00:44:33.297Z,45.20
2022-09-12T00:45:33.297Z,47.20
2022-09-12T00:46:33.266Z,44.70
2022-09-12T00:47:33.296Z,44.80
2022-09-12T00:48:33.266Z,42.50
2022-09-12T00:49:33.227Z,44.10
2022-09-12T00:50:33.215Z,45.50
2022-09-12T00:51:33.199Z,45.00
2022-09-12T00:52:33.216Z,46.60
2022-09-12T00:53:33.166Z,43.80
2022-09-12T00:54:33.149Z,44.30
2022-09-12T00:55:33.138Z,44.90
2022-09-12T00:56:33.126Z,43.20
2022-09-12T00:57:33.139Z,43.80
2022-09-12T00:58:33.111Z,43.00
2022-09-12T00:59:33.080Z,44.10
2022-09-12T01:00:33.069Z,44.80
2022-09-12T01:01:33.166Z,42.20
2022-09-12T01:02:33.079Z,44.10
2022-09-12T01:03:33.029Z,45.10
2022-09-12T01:04:33.029Z,44.20
2022-09-12T01:05:33.002Z,43.50
2022-09-12T01:06:32.997Z,42.20
2022-09-12T01:07:35.818Z,41.80
2022-09-12T01:08:33.970Z,43.00
2022-09-12T01:09:32.954Z,42.20
2022-09-12T01:10:32.941Z,41.70
2022-09-12T01:11:32.922Z,43.60
2022-09-12T01:12:32.938Z,42.10
2022-09-12T01:13:32.893Z,43.50
2022-09-12T01:14:32.881Z,42.20
2022-09-12T01:15:32.882Z,43.40
2022-09-12T01:16:32.885Z,42.50
2022-09-12T01:17:32.927Z,44.10
2022-09-12T01:18:32.833Z,43.20
2022-09-12T01:19:32.803Z,43.60
2022-09-12T01:20:32.804Z,44.70
2022-09-12T01:21:32.782Z,44.50
2022-09-12T01:22:32.792Z,42.80
2022-09-12T01:23:32.764Z,45.00
2022-09-12T01:24:32.753Z,44.50
2022-09-12T01:25:32.725Z,42.30
2022-09-12T01:26:32.715Z,44.90
2022-09-12T01:27:32.732Z,42.90
2022-09-12T01:28:32.703Z,44.90
2022-09-12T01:29:32.675Z,44.20
2022-09-12T01:30:32.687Z,43.20
2022-09-12T01:31:32.655Z,45.70
2022-09-12T01:32:32.692Z,42.80
2022-09-12T01:33:32.613Z,44.10
2022-09-12T01:34:32.604Z,43.80
2022-09-12T01:35:32.599Z,44.60
2022-09-12T01:36:32.594Z,43.20
2022-09-12T01:37:32.587Z,41.90
2022-09-12T01:38:32.574Z,43.20
2022-09-12T01:39:32.545Z,40.50
2022-09-12T01:40:32.533Z,39.60
2022-09-12T01:41:32.516Z,40.60
2022-09-12T01:42:32.539Z,37.60
2022-09-12T01:43:32.485Z,40.40
2022-09-12T01:44:32.478Z,38.80
2022-09-12T01:45:32.500Z,40.90
2022-09-12T01:46:32.474Z,38.80
2022-09-12T01:47:32.475Z,38.10
2022-09-12T01:48:32.417Z,37.00
2022-09-12T01:49:32.397Z,37.30
2022-09-12T01:50:32.396Z,37.40
2022-09-12T01:51:32.376Z,36.50
2022-09-12T01:52:32.387Z,35.60
2022-09-12T01:53:32.347Z,35.80
2022-09-12T01:54:32.428Z,34.70
2022-09-12T01:55:32.319Z,35.50
2022-09-12T01:56:32.312Z,35.30
2022-09-12T01:57:32.317Z,35.20
2022-09-12T01:58:32.356Z,34.90
2022-09-12T01:59:32.280Z,34.30
2022-09-12T02:00:32.259Z,36.00
2022-09-12T02:01:32.292Z,34.40
2022-09-12T02:02:32.270Z,34.70
2022-09-12T02:03:32.210Z,34.10
2022-09-12T02:04:34.315Z,35.30
2022-09-12T02:05:32.184Z,33.60
2022-09-12T02:06:32.192Z,34.20
2022-09-12T02:07:32.212Z,35.40
2022-09-12T02:08:32.171Z,34.80
2022-09-12T02:09:32.140Z,35.70
2022-09-12T02:10:32.802Z,36.10
2022-09-12T02:11:32.147Z,35.40
2022-09-12T02:12:32.103Z,36.50
2022-09-12T02:13:32.098Z,36.70
2022-09-12T02:14:32.081Z,35.00
2022-09-12T02:15:32.101Z,36.00
2022-09-12T02:16:32.126Z,36.00
2022-09-12T02:17:32.026Z,36.70
2022-09-12T02:18:32.051Z,37.80
2022-09-12T02:19:31.992Z,36.70
2022-09-12T02:20:47.325Z,35.60
2022-09-12T02:21:32.979Z,37.00
2022-09-12T02:22:31.974Z,35.30
2022-09-12T02:23:31.964Z,34.90
2022-09-12T02:24:31.943Z,35.20
2022-09-12T02:25:31.914Z,35.20
2022-09-12T02:26:31.917Z,35.30
2022-09-12T02:27:31.884Z,35.30
2022-09-12T02:28:31.905Z,34.80
2022-09-12T02:29:31.867Z,34.60
2022-09-12T02:30:31.871Z,33.80
2022-09-12T02:31:31.832Z,32.80
2022-09-12T02:32:31.826Z,32.30
2022-09-12T02:33:31.844Z,32.40
2022-09-12T02:34:31.794Z,33.00
2022-09-12T02:35:31.824Z,33.30
2022-09-12T02:36:31.765Z,32.70
2022-09-12T02:37:31.764Z,32.40
2022-09-12T02:38:31.774Z,32.30
2022-09-12T02:39:31.724Z,32.70
2022-09-12T02:40:31.713Z,31.30
2022-09-12T02:41:31.695Z,32.20
2022-09-12T02:42:31.688Z,32.10
2022-09-12T02:43:31.694Z,33.40
2022-09-12T02:44:31.674Z,33.00
2022-09-12T02:45:31.706Z,31.50
2022-09-12T02:46:31.626Z,33.10
2022-09-12T02:47:31.618Z,32.00
2022-09-12T02:48:31.664Z,33.20
2022-09-12T02:49:31.587Z,32.10
2022-09-12T02:50:31.638Z,32.10
2022-09-12T02:51:31.558Z,32.90
2022-09-12T02:52:31.549Z,33.20
2022-09-12T02:53:31.578Z,32.10
2022-09-12T02:54:31.679Z,32.00
2022-09-12T02:55:31.506Z,31.80
2022-09-12T02:56:31.499Z,31.40
2022-09-12T02:57:31.488Z,33.50
2022-09-12T02:58:31.494Z,31.00
2022-09-12T02:59:31.449Z,32.40
2022-09-12T03:00:31.478Z,32.40
2022-09-12T03:01:31.493Z,32.30
2022-09-12T03:02:31.417Z,31.60
2022-09-12T03:03:31.419Z,31.80
2022-09-12T03:04:31.389Z,31.00
2022-09-12T03:05:31.370Z,32.50
2022-09-12T03:06:31.380Z,31.10
2022-09-12T03:07:31.347Z,32.50
2022-09-12T03:08:31.359Z,30.60
2022-09-12T03:09:31.311Z,31.80
2022-09-12T03:10:31.308Z,30.40
2022-09-12T03:11:31.291Z,32.30
2022-09-12T03:12:31.313Z,32.10
2022-09-12T03:13:31.261Z,31.40
2022-09-12T03:14:31.260Z,32.30
2022-09-12T03:15:31.231Z,31.00
2022-09-12T03:16:31.267Z,31.00
2022-09-12T03:17:31.239Z,30.80
2022-09-12T03:18:31.199Z,30.20
2022-09-12T03:19:31.182Z,31.70
2022-09-12T03:20:31.170Z,31.10
2022-09-12T03:21:31.152Z,30.40
2022-09-12T03:22:31.172Z,29.80
2022-09-12T03:23:31.123Z,29.70
2022-09-12T03:24:31.113Z,30.50
2022-09-12T03:25:31.093Z,29.00
2022-09-12T03:26:31.092Z,28.80
2022-09-12T03:27:31.151Z,29.60
2022-09-12T03:28:31.063Z,30.10
2022-09-12T03:29:31.044Z,29.20
2022-09-12T03:30:31.071Z,28.90
2022-09-12T03:31:31.016Z,28.90
2022-09-12T03:32:31.034Z,29.60
2022-09-12T03:33:30.984Z,28.20
2022-09-12T03:34:30.984Z,31.00
2022-09-12T03:35:30.966Z,29.50
2022-09-12T03:36:30.957Z,29.90
2022-09-12T03:37:30.955Z,29.10
2022-09-12T03:38:30.926Z,30.70
2022-09-12T03:39:30.912Z,30.10
2022-09-12T03:40:30.896Z,28.40
2022-09-12T03:41:30.885Z,27.50
2022-09-12T03:42:30.898Z,28.40
2022-09-12T03:43:30.856Z,28.10
2022-09-12T03:44:30.844Z,28.00
2022-09-12T03:45:30.847Z,27.30
2022-09-12T03:46:30.817Z,28.20
2022-09-12T03:47:30.828Z,27.10
2022-09-12T03:48:30.807Z,27.20
2022-09-12T03:49:30.778Z,27.20
2022-09-12T03:50:30.766Z,26.90
2022-09-12T03:51:30.747Z,27.70
2022-09-12T03:52:30.769Z,26.60
2022-09-12T03:53:30.722Z,26.80
2022-09-12T03:54:30.710Z,25.80
2022-09-12T03:55:30.689Z,26.10
2022-09-12T03:56:30.696Z,26.70
2022-09-12T03:57:30.669Z,25.80
2022-09-12T03:58:30.710Z,25.20
2022-09-12T03:59:30.637Z,24.80
2022-09-12T04:00:30.629Z,25.20
2022-09-12T04:01:30.671Z,26.20
2022-09-12T04:02:30.637Z,24.60
2022-09-12T04:03:30.609Z,24.90
2022-09-12T04:04:30.577Z,24.60
2022-09-12T04:05:30.557Z,25.50
2022-09-12T04:06:30.563Z,24.70
2022-09-12T04:07:30.530Z,25.80
2022-09-12T04:08:30.541Z,24.80
2022-09-12T04:09:30.511Z,24.30
2022-09-12T04:10:30.491Z,25.10
2022-09-12T04:11:30.470Z,24.80
2022-09-12T04:12:30.464Z,25.40
2022-09-12T04:13:30.485Z,24.80
2022-09-12T04:14:30.438Z,24.70
2022-09-12T04:15:30.420Z,25.70
2022-09-12T04:16:30.455Z,24.70
2022-09-12T04:17:30.401Z,24.10
2022-09-12T04:18:30.410Z,24.50
2022-09-12T04:19:30.362Z,23.90
2022-09-12T04:20:30.370Z,24.00
2022-09-12T04:21:30.355Z,23.90
2022-09-12T04:22:30.343Z,25.30
2022-09-12T04:23:30.337Z,24.50
2022-09-12T04:24:30.304Z,24.30
2022-09-12T04:25:30.283Z,22.70
2022-09-12T04:26:30.273Z,24.00
2022-09-12T04:27:30.262Z,22.70
2022-09-12T04:28:30.273Z,23.60
2022-09-12T04:29:30.232Z,23.00
2022-09-12T04:30:30.252Z,23.20
2022-09-12T04:31:30.204Z,24.20
2022-09-12T04:32:30.195Z,22.40
2022-09-12T04:33:30.205Z,23.10
2022-09-12T04:34:30.173Z,23.00
2022-09-12T04:35:30.145Z,23.00
2022-09-12T04:36:30.135Z,24.60
2022-09-12T04:37:30.115Z,24.70
2022-09-12T04:38:30.136Z,23.30
2022-09-12T04:39:30.116Z,22.70
2022-09-12T04:40:30.085Z,23.10
2022-09-12T04:41:30.067Z,23.90
2022-09-12T04:42:30.057Z,22.90
2022-09-12T04:43:30.068Z,23.10
2022-09-12T04:44:30.026Z,23.20
2022-09-12T04:45:30.080Z,36.00
2022-09-12T04:46:30.005Z,22.40
2022-09-12T04:47:29.999Z,21.70
2022-09-12T04:48:30.008Z,21.60
2022-09-12T04:49:29.958Z,22.70
2022-09-12T04:50:29.949Z,22.60
2022-09-12T04:51:29.948Z,20.80
2022-09-12T04:52:29.924Z,32.20
2022-09-12T04:53:29.926Z,21.80
2022-09-12T04:54:29.904Z,22.80
2022-09-12T04:55:29.879Z,23.00
2022-09-12T04:56:29.858Z,22.20
2022-09-12T04:57:29.859Z,21.90
2022-09-12T04:58:29.858Z,21.80
2022-09-12T04:59:29.839Z,21.10
2022-09-12T05:00:29.843Z,21.70
2022-09-12T05:01:29.839Z,20.50
2022-09-12T05:02:29.826Z,21.20
2022-09-12T05:03:29.807Z,19.80
2022-09-12T05:04:29.749Z,59.50
2022-09-12T05:05:29.742Z,23.60
2022-09-12T05:06:29.740Z,31.40
2022-09-12T05:07:29.728Z,21.60
2022-09-12T05:08:29.727Z,20.10
2022-09-12T05:09:29.692Z,22.10
2022-09-12T05:10:29.671Z,20.60
2022-09-12T05:11:46.869Z,20.00
2022-09-12T05:12:30.641Z,19.50
2022-09-12T05:13:29.725Z,18.70
2022-09-12T05:14:29.619Z,19.50
2022-09-12T05:15:29.620Z,19.00
2022-09-12T05:16:29.634Z,18.90
2022-09-12T05:17:29.617Z,20.00
2022-09-12T05:18:29.562Z,19.20
2022-09-12T05:19:29.552Z,19.20
2022-09-12T05:20:29.553Z,18.30
2022-09-12T05:21:29.523Z,19.00
2022-09-12T05:22:29.543Z,18.10
2022-09-12T05:23:29.493Z,18.60
2022-09-12T05:24:29.524Z,18.80
2022-09-12T05:25:29.474Z,18.40
2022-09-12T05:26:29.454Z,17.80
2022-09-12T05:27:29.445Z,19.40
2022-09-12T05:28:29.457Z,18.20
2022-09-12T05:29:29.434Z,18.30
2022-09-12T05:30:29.464Z,20.10
2022-09-12T05:31:29.384Z,23.10
2022-09-12T05:32:29.386Z,18.40
2022-09-12T05:33:29.393Z,18.10
2022-09-12T05:34:29.343Z,37.40
2022-09-12T05:35:29.341Z,17.40
2022-09-12T05:36:29.344Z,16.70
2022-09-12T05:37:29.305Z,17.30
2022-09-12T05:38:29.316Z,16.40
2022-09-12T05:39:29.287Z,18.40
2022-09-12T05:40:29.256Z,20.80
2022-09-12T05:41:29.254Z,17.40
2022-09-12T05:42:29.228Z,30.20
2022-09-12T05:43:29.289Z,25.40
2022-09-12T05:44:29.225Z,31.60
2022-09-12T05:45:29.197Z,16.70
2022-09-12T05:46:29.187Z,30.90
2022-09-12T05:47:29.182Z,19.30
2022-09-12T05:48:29.178Z,22.00
2022-09-12T05:49:29.148Z,18.30
2022-09-12T05:50:29.128Z,16.40
2022-09-12T05:51:29.119Z,16.20
2022-09-12T05:52:29.096Z,16.70
2022-09-12T05:53:29.111Z,17.00
2022-09-12T05:54:31.685Z,15.70
2022-09-12T05:55:29.069Z,16.30
2022-09-12T05:56:29.039Z,15.50
2022-09-12T05:57:29.089Z,16.40
2022-09-12T05:58:29.039Z,15.80
2022-09-12T05:59:29.009Z,15.90
2022-09-12T06:00:33.321Z,16.00
2022-09-12T06:01:29.024Z,15.40
2022-09-12T06:02:28.973Z,15.80
2022-09-12T06:03:28.977Z,15.50
2022-09-12T06:04:28.941Z,15.10
2022-09-12T06:05:28.931Z,14.50
2022-09-12T06:06:28.920Z,14.70
2022-09-12T06:07:28.900Z,14.60
2022-09-12T06:08:28.924Z,14.40
2022-09-12T06:09:28.872Z,14.30
2022-09-12T06:10:28.851Z,14.10
2022-09-12T06:11:28.864Z,14.50
2022-09-12T06:12:28.822Z,13.70
2022-09-12T06:13:28.842Z,14.20
2022-09-12T06:14:28.812Z,13.80
2022-09-12T06:15:28.789Z,13.60
2022-09-12T06:16:28.876Z,14.60
2022-09-12T06:17:28.762Z,13.20
2022-09-12T06:18:28.763Z,13.30
2022-09-12T06:19:28.743Z,14.60
2022-09-12T06:20:28.714Z,14.00
2022-09-12T06:21:28.725Z,13.40
2022-09-12T06:22:28.693Z,13.10
2022-09-12T06:23:28.714Z,13.60
2022-09-12T06:24:28.664Z,13.80
2022-09-12T06:25:28.670Z,13.70
2022-09-12T06:26:28.637Z,13.60
2022-09-12T06:27:28.646Z,13.50
2022-09-12T06:28:28.662Z,14.00
2022-09-12T06:29:28.612Z,14.30
2022-09-12T06:30:28.674Z,13.30
2022-09-12T06:31:28.573Z,13.80
2022-09-12T06:32:28.556Z,13.50
2022-09-12T06:33:28.575Z,13.40
2022-09-12T06:34:28.526Z,12.60
2022-09-12T06:35:28.516Z,13.00
2022-09-12T06:36:28.503Z,12.50
2022-09-12T06:37:28.497Z,13.00
2022-09-12T06:38:28.517Z,12.90
2022-09-12T06:39:28.474Z,12.40
2022-09-12T06:40:28.446Z,12.70
2022-09-12T06:41:28.447Z,13.10
2022-09-12T06:42:28.427Z,12.40
2022-09-12T06:43:28.435Z,13.20
2022-09-12T06:44:28.389Z,13.40
2022-09-12T06:45:28.378Z,13.10
2022-09-12T06:46:28.374Z,12.90
2022-09-12T06:47:28.356Z,12.60
2022-09-12T06:48:28.359Z,12.60
2022-09-12T06:49:28.358Z,13.70
2022-09-12T06:50:28.320Z,12.90
2022-09-12T06:51:28.300Z,13.10
2022-09-12T06:52:28.280Z,13.00
2022-09-12T06:53:28.309Z,13.10
2022-09-12T06:54:28.260Z,12.50
2022-09-12T06:55:28.250Z,13.50
2022-09-12T06:56:28.259Z,13.50
2022-09-12T06:57:28.237Z,13.40
2022-09-12T06:58:28.221Z,13.40
2022-09-12T06:59:28.201Z,13.00
2022-09-12T07:00:28.171Z,12.90
2022-09-12T07:01:28.204Z,13.00
2022-09-12T07:02:28.176Z,13.20
2022-09-12T07:03:28.162Z,12.90
2022-09-12T07:04:28.125Z,12.60
2022-09-12T07:05:28.120Z,13.60
2022-09-12T07:06:28.092Z,12.70
2022-09-12T07:07:28.102Z,13.10
2022-09-12T07:08:28.064Z,12.70
2022-09-12T07:09:28.054Z,13.10
2022-09-12T07:10:28.034Z,13.60
2022-09-12T07:11:28.030Z,13.40
2022-09-12T07:12:28.034Z,13.40
2022-09-12T07:13:28.001Z,13.80
2022-09-12T07:14:27.981Z,13.70
2022-09-12T07:15:27.974Z,13.10
2022-09-12T07:16:27.990Z,13.50
2022-09-12T07:17:27.995Z,13.60
2022-09-12T07:18:27.955Z,13.20
2022-09-12T07:19:27.921Z,13.40
2022-09-12T07:20:27.905Z,13.30
2022-09-12T07:21:27.885Z,13.50
2022-09-12T07:22:27.895Z,13.10
2022-09-12T07:23:27.864Z,13.20
2022-09-12T07:24:27.855Z,13.60
2022-09-12T07:25:27.836Z,12.80
2022-09-12T07:26:27.819Z,14.40
2022-09-12T07:27:27.836Z,13.10
2022-09-12T07:28:27.795Z,13.10
2022-09-12T07:29:43.131Z,14.00
2022-09-12T07:30:28.797Z,13.40
2022-09-12T07:31:27.760Z,14.00
2022-09-12T07:32:27.758Z,13.70
2022-09-12T07:33:27.746Z,13.00
2022-09-12T07:34:27.709Z,13.60
2022-09-12T07:35:27.706Z,13.90
2022-09-12T07:36:27.690Z,14.10
2022-09-12T07:37:27.700Z,13.40
2022-09-12T07:38:27.660Z,13.50
2022-09-12T07:39:27.647Z,13.60
2022-09-12T07:40:27.638Z,13.60
2022-09-12T07:41:27.647Z,13.60
2022-09-12T07:42:27.629Z,13.90
2022-09-12T07:43:27.598Z,13.50
2022-09-12T07:44:27.581Z,14.30
2022-09-12T07:45:27.570Z,13.70
2022-09-12T07:46:27.551Z,13.90
2022-09-12T07:47:27.568Z,13.50
2022-09-12T07:48:28.502Z,14.00
2022-09-12T07:49:27.529Z,14.50
2022-09-12T07:50:27.492Z,14.00
2022-09-12T07:51:27.512Z,14.60
2022-09-12T07:52:27.464Z,14.20
2022-09-12T07:53:27.461Z,14.20
2022-09-12T07:54:27.443Z,14.40
2022-09-12T07:55:27.431Z,14.50
2022-09-12T07:56:30.561Z,14.50
2022-09-12T07:57:27.416Z,13.70
2022-09-12T07:58:27.384Z,14.30
2022-09-12T07:59:50.787Z,14.20
2022-09-12T08:00:28.355Z,13.30
2022-09-12T08:01:27.392Z,13.90
2022-09-12T08:02:27.407Z,14.40
2022-09-12T08:03:27.322Z,14.20
2022-09-12T08:04:27.302Z,14.30
2022-09-12T08:05:27.303Z,14.20
2022-09-12T08:06:27.273Z,14.10
2022-09-12T08:07:27.285Z,14.50
2022-09-12T08:08:27.261Z,14.50
2022-09-12T08:09:27.237Z,14.50
2022-09-12T08:10:27.216Z,15.10
2022-09-12T08:11:27.217Z,13.90
2022-09-12T08:12:27.217Z,13.90
2022-09-12T08:13:27.196Z,14.70
2022-09-12T08:14:27.169Z,14.40
2022-09-12T08:15:27.227Z,14.60
2022-09-12T08:16:27.139Z,15.00
2022-09-12T08:17:27.191Z,14.80
2022-09-12T08:18:27.108Z,14.30
2022-09-12T08:19:27.108Z,13.80
2022-09-12T08:20:28.509Z,14.80
2022-09-12T08:21:27.087Z,14.70
2022-09-12T08:22:27.098Z,14.10
2022-09-12T08:23:27.050Z,14.20
2022-09-12T08:24:27.038Z,13.40
2022-09-12T08:25:27.019Z,14.20
2022-09-12T08:26:26.999Z,14.20
2022-09-12T08:27:27.044Z,13.70
2022-09-12T08:28:26.976Z,14.40
2022-09-12T08:29:26.982Z,14.10
2022-09-12T08:30:26.951Z,13.70
2022-09-12T08:31:26.958Z,14.60
2022-09-12T08:32:26.951Z,13.70
2022-09-12T08:33:26.913Z,13.70
2022-09-12T08:34:26.890Z,13.70
2022-09-12T08:35:26.884Z,12.70
2022-09-12T08:36:26.874Z,13.40
2022-09-12T08:37:26.892Z,13.30
2022-09-12T08:38:26.844Z,13.40
2022-09-12T08:39:26.833Z,13.00
2022-09-12T08:40:26.813Z,13.40
2022-09-12T08:41:26.803Z,13.10
2022-09-12T08:42:26.814Z,13.40
2022-09-12T08:43:26.776Z,12.40
2022-09-12T08:44:26.783Z,13.40
2022-09-12T08:45:26.755Z,13.20
2022-09-12T08:46:26.817Z,12.60
2022-09-12T08:47:26.723Z,13.20
2022-09-12T08:48:26.718Z,13.00
2022-09-12T08:49:26.703Z,12.70
2022-09-12T08:50:26.677Z,13.60
2022-09-12T08:51:26.705Z,13.40
2022-09-12T08:52:26.655Z,12.90
2022-09-12T08:53:26.636Z,13.10
2022-09-12T08:54:26.635Z,13.20
2022-09-12T08:55:26.616Z,12.80
2022-09-12T08:56:31.423Z,13.00
2022-09-12T08:57:27.616Z,13.10
2022-09-12T08:58:26.574Z,14.00
2022-09-12T08:59:26.576Z,13.50
2022-09-12T09:00:26.548Z,12.80
2022-09-12T09:01:26.604Z,12.80
2022-09-12T09:02:26.638Z,12.90
2022-09-12T09:03:26.508Z,12.20
2022-09-12T09:04:28.792Z,12.90
2022-09-12T09:05:26.481Z,12.70
2022-09-12T09:06:26.478Z,12.40
2022-09-12T09:07:26.449Z,13.10
2022-09-12T09:08:26.440Z,13.30
2022-09-12T09:09:26.421Z,12.30
2022-09-12T09:10:26.410Z,12.70
2022-09-12T09:11:26.416Z,12.20
2022-09-12T09:12:26.382Z,12.60
2022-09-12T09:13:26.360Z,12.30
2022-09-12T09:14:26.351Z,12.20
2022-09-12T09:15:26.415Z,12.60
2022-09-12T09:16:26.351Z,12.00
2022-09-12T09:17:26.311Z,12.30
2022-09-12T09:18:26.299Z,12.50
2022-09-12T09:19:26.283Z,12.60
2022-09-12T09:20:26.302Z,12.00
2022-09-12T09:21:26.279Z,13.10
2022-09-12T09:22:26.264Z,13.00
2022-09-12T09:23:26.246Z,12.80
2022-09-12T09:24:26.214Z,12.90
2022-09-12T09:25:26.204Z,12.50
2022-09-12T09:26:26.234Z,13.00
2022-09-12T09:27:39.998Z,13.40
2022-09-12T09:28:27.180Z,13.00
2022-09-12T09:29:26.146Z,12.90
2022-09-12T09:30:26.135Z,12.30
2022-09-12T09:31:26.212Z,11.80
2022-09-12T09:32:26.114Z,12.20
2022-09-12T09:33:26.097Z,12.00
2022-09-12T09:34:26.087Z,12.70
2022-09-12T09:35:26.074Z,12.80
2022-09-12T09:36:26.084Z,12.30
2022-09-12T09:37:26.046Z,12.10
2022-09-12T09:38:26.035Z,11.30
2022-09-12T09:39:26.007Z,12.90
2022-09-12T09:40:26.015Z,12.20
2022-09-12T09:41:26.018Z,12.00
2022-09-12T09:42:26.001Z,11.40
2022-09-12T09:43:25.958Z,13.20
2022-09-12T09:44:25.949Z,11.70
2022-09-12T09:45:25.931Z,11.90
2022-09-12T09:46:26.062Z,11.70
2022-09-12T09:47:25.900Z,11.50
2022-09-12T09:48:25.897Z,11.20
2022-09-12T09:49:25.878Z,11.50
2022-09-12T09:50:25.880Z,11.00
2022-09-12T09:51:25.879Z,10.90
2022-09-12T09:52:25.841Z,11.60
2022-09-12T09:53:25.820Z,11.60
2022-09-12T09:54:25.824Z,10.90
2022-09-12T09:55:25.793Z,10.80
2022-09-12T09:56:25.812Z,10.90
2022-09-12T09:57:25.773Z,10.20
2022-09-12T09:58:25.766Z,13.00
2022-09-12T09:59:25.750Z,10.80
2022-09-12T10:00:25.735Z,10.50
2022-09-12T10:01:25.780Z,10.90
2022-09-12T10:02:25.741Z,10.90
2022-09-12T10:03:25.684Z,11.00
2022-09-12T10:04:25.674Z,10.70
2022-09-12T10:05:25.677Z,10.00
2022-09-12T10:06:25.675Z,10.70
2022-09-12T10:07:25.646Z,11.00
2022-09-12T10:08:25.625Z,9.60
2022-09-12T10:09:25.605Z,10.20
2022-09-12T10:10:25.616Z,9.70
2022-09-12T10:11:25.605Z,10.20
2022-09-12T10:12:25.583Z,9.30
2022-09-12T10:13:25.564Z,9.00
2022-09-12T10:14:25.548Z,9.90
2022-09-12T10:15:25.536Z,10.10
2022-09-12T10:16:25.537Z,11.40
2022-09-12T10:17:25.508Z,10.10
2022-09-12T10:18:25.490Z,10.50
2022-09-12T10:19:25.469Z,10.10
2022-09-12T10:20:25.474Z,9.90
2022-09-12T10:21:25.468Z,10.00
2022-09-12T10:22:25.439Z,9.40
2022-09-12T10:23:25.423Z,7.90
2022-09-12T10:24:25.410Z,7.70
2022-09-12T10:25:25.391Z,7.90
2022-09-12T10:26:25.418Z,7.90
2022-09-12T10:27:25.389Z,9.30
2022-09-12T10:28:25.350Z,9.80
2022-09-12T10:29:25.341Z,7.70
2022-09-12T10:30:25.373Z,8.60
2022-09-12T10:31:25.332Z,9.50
2022-09-12T10:32:29.960Z,8.20
2022-09-12T10:33:26.284Z,7.40
2022-09-12T10:34:25.286Z,7.00
2022-09-12T10:35:25.260Z,6.80
2022-09-12T10:36:25.270Z,8.50
2022-09-12T10:37:25.224Z,8.30
2022-09-12T10:38:25.221Z,7.80
2022-09-12T10:39:25.198Z,8.20
2022-09-12T10:40:25.257Z,8.50
2022-09-12T10:41:25.203Z,7.80
2022-09-12T10:42:25.165Z,8.30
2022-09-12T10:43:25.145Z,7.30
2022-09-12T10:44:25.136Z,8.40
2022-09-12T10:45:25.124Z,6.30
2022-09-12T10:46:25.222Z,7.20
2022-09-12T10:47:25.100Z,6.80
2022-09-12T10:48:25.084Z,6.50
2022-09-12T10:49:25.068Z,6.70
2022-09-12T10:50:25.058Z,6.30
2022-09-12T10:51:25.068Z,5.70
2022-09-12T10:52:25.031Z,5.40
2022-09-12T10:53:25.016Z,6.30
2022-09-12T10:54:25.027Z,6.30
2022-09-12T10:55:24.990Z,6.60
2022-09-12T10:56:25.001Z,5.80
2022-09-12T10:57:24.959Z,5.90
2022-09-12T10:58:24.954Z,5.50
2022-09-12T10:59:24.931Z,4.70
2022-09-12T11:00:24.921Z,4.80
2022-09-12T11:01:24.961Z,4.50
2022-09-12T11:02:24.955Z,4.30
2022-09-12T11:03:24.884Z,4.00
2022-09-12T11:04:24.893Z,4.40
2022-09-12T11:05:24.853Z,5.20
2022-09-12T11:06:24.882Z,4.70
2022-09-12T11:07:24.827Z,4.10
2022-09-12T11:08:24.843Z,3.50
2022-09-12T11:09:24.804Z,3.30
2022-09-12T11:10:24.796Z,3.50
2022-09-12T11:11:24.803Z,3.20
2022-09-12T11:12:24.765Z,3.40
2022-09-12T11:13:24.751Z,3.50
2022-09-12T11:14:24.745Z,3.70
2022-09-12T11:15:24.727Z,2.80
2022-09-12T11:16:24.737Z,3.70
2022-09-12T11:17:24.698Z,2.90
2022-09-12T11:18:24.688Z,2.70
2022-09-12T11:19:24.676Z,2.70
2022-09-12T11:20:24.679Z,2.30
2022-09-12T11:21:24.670Z,2.60
2022-09-12T11:22:26.770Z,2.70
2022-09-12T11:23:25.621Z,2.60
2022-09-12T11:24:24.611Z,2.30
2022-09-12T11:25:24.593Z,2.30
2022-09-12T11:26:24.612Z,2.20
2022-09-12T11:27:24.574Z,1.80
2022-09-12T11:28:24.565Z,2.20
2022-09-12T11:29:24.567Z,2.00
2022-09-12T11:30:24.532Z,2.70
2022-09-12T11:31:24.555Z,2.40
2022-09-12T11:32:24.512Z,2.00
2022-09-12T11:33:24.494Z,2.20
2022-09-12T11:34:24.487Z,2.20
2022-09-12T11:35:24.474Z,5.00
2022-09-12T11:36:24.496Z,2.30
2022-09-12T11:37:24.454Z,2.50
2022-09-12T11:38:24.444Z,2.20
2022-09-12T11:39:24.418Z,1.90
2022-09-12T11:40:24.554Z,2.30
2022-09-12T11:41:24.418Z,2.80
2022-09-12T11:42:24.390Z,1.80
2022-09-12T11:43:24.379Z,1.90
2022-09-12T11:44:24.360Z,2.10
2022-09-12T11:45:24.360Z,1.90
2022-09-12T11:46:24.392Z,2.10
2022-09-12T11:47:24.320Z,2.20
2022-09-12T11:48:24.311Z,2.30
2022-09-12T11:49:24.300Z,2.90
2022-09-12T11:50:24.285Z,2.40
2022-09-12T11:51:24.310Z,3.10
2022-09-12T11:52:24.272Z,2.90
2022-09-12T11:53:24.243Z,2.70
2022-09-12T11:54:24.243Z,2.60
2022-09-12T11:55:24.221Z,2.50
2022-09-12T11:56:24.242Z,2.50
2022-09-12T11:57:24.195Z,2.30
2022-09-12T11:58:24.194Z,2.20
2022-09-12T11:59:24.177Z,2.20
2022-09-12T12:00:24.166Z,2.60
2022-09-12T12:01:24.178Z,2.40
2022-09-12T12:02:24.207Z,2.10
2022-09-12T12:03:24.175Z,2.20
2022-09-12T12:04:24.120Z,2.40
2022-09-12T12:05:24.110Z,2.60
2022-09-12T12:06:24.118Z,3.10
2022-09-12T12:07:24.081Z,3.20
2022-09-12T12:08:24.071Z,3.00
2022-09-12T12:09:24.050Z,3.00
2022-09-12T12:10:24.040Z,3.10
2022-09-12T12:11:24.071Z,3.00
2022-09-12T12:12:24.022Z,3.00
2022-09-12T12:13:24.005Z,2.80
2022-09-12T12:14:24.002Z,3.10
2022-09-12T12:15:23.993Z,2.90
2022-09-12T12:16:24.065Z,3.10
2022-09-12T12:17:23.964Z,3.50
2022-09-12T12:18:23.964Z,2.90
2022-09-12T12:19:23.935Z,2.60
2022-09-12T12:20:23.939Z,3.50
2022-09-12T12:21:23.935Z,2.70
2022-09-12T12:22:23.909Z,2.80
2022-09-12T12:23:23.888Z,2.60
2022-09-12T12:24:23.909Z,3.10
2022-09-12T12:25:27.571Z,2.80
2022-09-12T12:26:24.879Z,2.90
2022-09-12T12:27:23.837Z,2.40
2022-09-12T12:28:23.829Z,2.70
2022-09-12T12:29:23.809Z,2.80
2022-09-12T12:30:23.808Z,3.20
2022-09-12T12:31:23.914Z,3.00
2022-09-12T12:32:23.801Z,3.10
2022-09-12T12:33:23.769Z,3.20
2022-09-12T12:34:23.754Z,4.40
2022-09-12T12:35:23.750Z,2.90
2022-09-12T12:36:23.764Z,3.20
2022-09-12T12:37:23.712Z,3.70
2022-09-12T12:38:23.713Z,4.10
2022-09-12T12:39:23.693Z,2.80
2022-09-12T12:40:23.744Z,2.60
2022-09-12T12:41:23.685Z,2.80
2022-09-12T12:42:23.655Z,2.60
2022-09-12T12:43:23.644Z,2.80
2022-09-12T12:44:23.636Z,3.00
2022-09-12T12:45:23.617Z,2.70
2022-09-12T12:46:23.653Z,3.20
2022-09-12T12:47:23.586Z,3.10
2022-09-12T12:48:23.587Z,2.50
2022-09-12T12:49:23.577Z,2.60
2022-09-12T12:50:23.557Z,3.00
2022-09-12T12:51:23.582Z,2.40
2022-09-12T12:52:23.550Z,2.50
2022-09-12T12:53:23.519Z,2.60
2022-09-12T12:54:23.509Z,3.20
2022-09-12T12:55:23.490Z,2.60
2022-09-12T12:56:23.512Z,2.60
2022-09-12T12:57:23.472Z,2.80